NO-0041 weather

Spydeberg Airstrip
Spydeberg, Østfold, Norway

Public forecast

Using degrees Celsius for public forecast. Weather courtesy of forecast.io.

METAR (pilot weather report)

Closest report is Moss Airport, Rygge, 19.9 nm (36.9 km) SSW. Retrieved 2019/05/22 18:20 UTC (0 seconds ago):

ENRY 221820Z AUTO 16007KT 120V190 9999NDV OVC005/// 13/11 Q1009

TAF (pilot weather forecast)

Closest forecast is Moss Airport, Rygge, 19.9 nm (36.9 km) SSW. Retrieved 2019/05/22 18:57 UTC (0 seconds ago):

TAF ENRY 221700Z 2218/2318 16010KT 9999 -RA SCT004 BKN010 TEMPO 2218/2222 4000 -RADZ BR BKN004 BECMG 2222/2224 22012KT FEW030